Cebu City, Philippines

9:50 PM PHT on February 09, 2016 (GMT +0800)
Best Western Plus Lex Cebu | | Change Station
CLOSE
Current Station
Personal Weather Station
Location: Cebu, Cebu
Elevation: 157 ft
Nearby Weather Stations

Elev 157 ft 10.32 °N, 123.89 °E | Updated 2 seconds ago

Scattered Clouds
Scattered Clouds
79.0 °F
Feels Like 82 °F
N
12.0
Wind Variable Wind from NNE
Gusts 15.0 mph

Today
High -- | Low -- °F
--% Chance of Precip.
Yesterday
High -- | Low -- °F
Precip. -- in
Pressure 29.92 in
Visibility 6.2 miles
Clouds Few 2000 ft
Scattered Clouds 30000 ft
Heat Index 82 °F
Dew Point 73 °F
Humidity 83%
Rainfall 0.00 in
Snow Depth Not available.
6:06 AM 5:51 PM
New Moon, 1% visible
METAR RPVM 091300Z 05009KT 9999 FEW020 SCT300 28/22 Q1013 RMK A2991
Pressure 29.92 in
Visibility 6.2 miles
Clouds Few 2000 ft
Scattered Clouds 30000 ft
Heat Index 82 °F
Dew Point 73 °F
Humidity 83%
Rainfall 0.00 in
Snow Depth Not available.
6:06 AM 5:51 PM
New Moon, 1% visible
METAR RPVM 091300Z 05009KT 9999 FEW020 SCT300 28/22 Q1013 RMK A2991

10-Day Weather Forecast

No radar image for this location.
×

Almanac

Astronomy

Feb. 09, 2016 Rise Set
Actual Time
Civil Twilight
Nautical Twilight
Astronomical Twilight
Moon
Length of Visible Light
Length of Day
Tomorrow will be .
, % of the Moon is Illuminated

Today's Extremes

Country Highs Country Lows

Community

WunderPhotos

Upload Photos

1,891,591 photos uploaded!

WunderBlog® & News

Nearby

Air Quality

  Air Quality AQ Index Pollutant
Not available.

Snow Depth

Station Depth Elevation

Earthquake Activity

City Distance Mag. Time & Date
Minimum magnitude displayed is 2.5.

Coastal Water Temperatures

Place Temperature

Stations

Nearby Weather Stations

Station Location Temp. Windchill Dew Point Humidity Wind Precip. Elev Updated Type